| Back to River Map | <<< Previous Forecast Point | | | Next Forecast Point >>> | Printer Version | Graph Version |  |
|
SACRAMENTO RIVER - HAMILTON CITY (HAMC1)
| Latitude: 39.75º N | Longitude: 122.00º W | Elevation: 125 Feet | | Forecast Type: Official Location |
| Location: Glenn County in California | Bulletin Group: Upper Sacramento | River Group: Upper Sacramento |
| Issuance Time: | Sep 04 2026 at 7:17 AM PDT | Next Issuance: | Sep 05 2026 at 9:00 AM PDT
| |
| Action: 142.0 Feet | Minor Flood: 147.0 Feet | Moderate Flood: 149.2 Feet | Major Flood: 150.2 Feet |
# Tabular Observed and Forecast Hydrograph Information
#
# Location: Sacramento River - Hamilton City (HAMC1)
#
# File Generation Time: 09/04/2026 at 07:17 AM PDT
# Data Interval: 1 Hour
#
# Most Recent Date & Time of Maximum Observed: 08/30/2026 at 02:00 PM PDT
# Maximum Observed Stage: 128.54 Feet
# Maximum Observed Flow: 6729 cfs
#
# Earliest Date & Time of Maximum Forecast: 09/04/2026 at 09:00 AM PDT
# Maximum Forecast Stage: 128.47 Feet
# Maximum Forecast Flow: 6558 cfs
#
# OBSERVED
#
# Date & Time (Local) Stage (Feet) Flow (cfs) Trend Observed Status
# ---------------------------------------------------------------------------------
08/30/2026 07 AM PDT 128.51 6656 Normal
08/30/2026 08 AM PDT 128.52 6680 + Normal
08/30/2026 09 AM PDT 128.53 6705 + Normal
08/30/2026 10 AM PDT 128.53 6705 0 Normal
08/30/2026 11 AM PDT 128.53 6705 0 Normal
08/30/2026 12 PM PDT 128.54 6729 + Normal
08/30/2026 01 PM PDT 128.53 6705 - Normal
08/30/2026 02 PM PDT 128.54 6729 + Normal
08/30/2026 03 PM PDT 128.53 6705 - Normal
08/30/2026 04 PM PDT 128.52 6680 - Normal
08/30/2026 05 PM PDT 128.52 6680 0 Normal
08/30/2026 06 PM PDT 128.51 6656 - Normal
08/30/2026 07 PM PDT 128.50 6632 - Normal
08/30/2026 08 PM PDT 128.49 6607 - Normal
08/30/2026 09 PM PDT 128.48 6582 - Normal
08/30/2026 10 PM PDT 128.46 6533 - Normal
08/30/2026 11 PM PDT 128.45 6509 - Normal
08/31/2026 12 AM PDT 128.44 6485 - Normal
08/31/2026 01 AM PDT 128.43 6460 - Normal
08/31/2026 02 AM PDT 128.42 6436 - Normal
08/31/2026 03 AM PDT 128.41 6412 - Normal
08/31/2026 04 AM PDT 128.40 6388 - Normal
08/31/2026 05 AM PDT 128.39 6363 - Normal
08/31/2026 06 AM PDT 128.38 6338 - Normal
08/31/2026 07 AM PDT 128.38 6338 0 Normal
08/31/2026 08 AM PDT 128.38 6338 0 Normal
08/31/2026 09 AM PDT 128.38 6338 0 Normal
08/31/2026 10 AM PDT 128.38 6338 0 Normal
08/31/2026 11 AM PDT 128.38 6338 0 Normal
08/31/2026 12 PM PDT 128.39 6363 + Normal
08/31/2026 01 PM PDT 128.38 6338 - Normal
08/31/2026 02 PM PDT 128.38 6338 0 Normal
08/31/2026 03 PM PDT 128.39 6363 + Normal
08/31/2026 04 PM PDT 128.38 6338 - Normal
08/31/2026 05 PM PDT 128.37 6314 - Normal
08/31/2026 06 PM PDT 128.39 6363 + Normal
08/31/2026 07 PM PDT 128.39 6363 0 Normal
08/31/2026 08 PM PDT 128.38 6338 - Normal
08/31/2026 09 PM PDT 128.37 6314 - Normal
08/31/2026 10 PM PDT 128.33 6216 - Normal
08/31/2026 11 PM PDT 128.32 6192 - Normal
09/01/2026 12 AM PDT 128.28 6095 - Normal
09/01/2026 01 AM PDT 128.29 6119 + Normal
09/01/2026 02 AM PDT 128.27 6070 - Normal
09/01/2026 03 AM PDT 128.26 6046 - Normal
09/01/2026 04 AM PDT 128.26 6046 0 Normal
09/01/2026 05 AM PDT 128.28 6095 + Normal
09/01/2026 06 AM PDT 128.28 6095 0 Normal
09/01/2026 07 AM PDT 128.30 6144 + Normal
09/01/2026 08 AM PDT 128.30 6144 0 Normal
09/01/2026 09 AM PDT 128.28 6095 - Normal
09/01/2026 10 AM PDT 128.27 6070 - Normal
09/01/2026 11 AM PDT 128.28 6095 + Normal
09/01/2026 12 PM PDT 128.28 6095 0 Normal
09/01/2026 01 PM PDT 128.27 6070 - Normal
09/01/2026 02 PM PDT 128.27 6070 0 Normal
09/01/2026 03 PM PDT 128.26 6046 - Normal
09/01/2026 04 PM PDT 128.27 6070 + Normal
09/01/2026 05 PM PDT 128.28 6095 + Normal
09/01/2026 06 PM PDT 128.28 6095 0 Normal
09/01/2026 07 PM PDT 128.29 6119 + Normal
09/01/2026 08 PM PDT 128.29 6119 0 Normal
09/01/2026 09 PM PDT 128.31 6168 + Normal
09/01/2026 10 PM PDT 128.29 6119 - Normal
09/01/2026 11 PM PDT 128.31 6168 + Normal
09/02/2026 12 AM PDT 128.29 6119 - Normal
09/02/2026 01 AM PDT 128.27 6070 - Normal
09/02/2026 02 AM PDT 128.28 6095 + Normal
09/02/2026 03 AM PDT 128.28 6095 0 Normal
09/02/2026 04 AM PDT 128.30 6144 + Normal
09/02/2026 05 AM PDT 128.31 6168 + Normal
09/02/2026 06 AM PDT 128.30 6144 - Normal
09/02/2026 07 AM PDT 128.30 6144 0 Normal
09/02/2026 08 AM PDT 128.31 6168 + Normal
09/02/2026 09 AM PDT 128.30 6144 - Normal
09/02/2026 10 AM PDT 128.32 6192 + Normal
09/02/2026 11 AM PDT 128.32 6192 0 Normal
09/02/2026 12 PM PDT 128.30 6144 - Normal
09/02/2026 01 PM PDT 128.30 6144 0 Normal
09/02/2026 02 PM PDT 128.32 6192 + Normal
09/02/2026 03 PM PDT 128.31 6168 - Normal
09/02/2026 04 PM PDT 128.32 6192 + Normal
09/02/2026 05 PM PDT 128.31 6168 - Normal
09/02/2026 06 PM PDT 128.31 6168 0 Normal
09/02/2026 07 PM PDT 128.32 6192 + Normal
09/02/2026 08 PM PDT 128.34 6240 + Normal
09/02/2026 09 PM PDT 128.33 6216 - Normal
09/02/2026 10 PM PDT 128.33 6216 0 Normal
09/02/2026 11 PM PDT 128.34 6240 + Normal
09/03/2026 12 AM PDT 128.34 6240 0 Normal
09/03/2026 01 AM PDT 128.35 6265 + Normal
09/03/2026 02 AM PDT 128.35 6265 0 Normal
09/03/2026 03 AM PDT 128.33 6216 - Normal
09/03/2026 04 AM PDT 128.33 6216 0 Normal
09/03/2026 05 AM PDT 128.33 6216 0 Normal
09/03/2026 06 AM PDT 128.33 6216 0 Normal
09/03/2026 07 AM PDT 128.33 6216 0 Normal
09/03/2026 08 AM PDT 128.33 6216 0 Normal
09/03/2026 09 AM PDT 128.35 6265 + Normal
09/03/2026 10 AM PDT 128.35 6265 0 Normal
09/03/2026 11 AM PDT 128.35 6265 0 Normal
09/03/2026 12 PM PDT 128.35 6265 0 Normal
09/03/2026 01 PM PDT 128.36 6289 + Normal
09/03/2026 02 PM PDT 128.38 6338 + Normal
09/03/2026 03 PM PDT 128.35 6265 - Normal
09/03/2026 04 PM PDT 128.35 6265 0 Normal
09/03/2026 05 PM PDT 128.35 6265 0 Normal
09/03/2026 06 PM PDT 128.37 6314 + Normal
09/03/2026 07 PM PDT 128.36 6289 - Normal
09/03/2026 08 PM PDT 128.37 6314 + Normal
09/03/2026 09 PM PDT 128.37 6314 0 Normal
09/03/2026 10 PM PDT 128.37 6314 0 Normal
09/03/2026 11 PM PDT 128.38 6338 + Normal
09/04/2026 12 AM PDT 128.40 6388 + Normal
09/04/2026 01 AM PDT 128.41 6412 + Normal
09/04/2026 02 AM PDT 128.41 6412 0 Normal
09/04/2026 03 AM PDT 128.42 6436 + Normal
09/04/2026 04 AM PDT 128.42 6436 0 Normal
09/04/2026 05 AM PDT 128.43 6460 + Normal
09/04/2026 06 AM PDT 128.44 6485 + Normal
09/04/2026 07 AM PDT 128.45 6509 + Normal
#
# FORECAST
#
# Date & Time (Local) Stage (Feet) Flow (cfs) Trend Forecast Status
# ---------------------------------------------------------------------------------
09/04/2026 08 AM PDT 128.46 6533 Normal
09/04/2026 09 AM PDT 128.47 6558 + Normal
09/04/2026 10 AM PDT 128.47 6558 0 Normal
09/04/2026 11 AM PDT 128.47 6558 0 Normal
09/04/2026 12 PM PDT 128.47 6558 0 Normal
09/04/2026 01 PM PDT 128.46 6533 - Normal
09/04/2026 02 PM PDT 128.46 6533 0 Normal
09/04/2026 03 PM PDT 128.45 6509 - Normal
09/04/2026 04 PM PDT 128.45 6509 0 Normal
09/04/2026 05 PM PDT 128.44 6485 - Normal
09/04/2026 06 PM PDT 128.43 6460 - Normal
09/04/2026 07 PM PDT 128.43 6460 0 Normal
09/04/2026 08 PM PDT 128.43 6460 0 Normal
09/04/2026 09 PM PDT 128.43 6460 0 Normal
09/04/2026 10 PM PDT 128.44 6485 + Normal
09/04/2026 11 PM PDT 128.44 6485 0 Normal
09/05/2026 12 AM PDT 128.44 6485 0 Normal
09/05/2026 01 AM PDT 128.44 6485 0 Normal
09/05/2026 02 AM PDT 128.43 6460 - Normal
09/05/2026 03 AM PDT 128.43 6460 0 Normal
09/05/2026 04 AM PDT 128.42 6436 - Normal
09/05/2026 05 AM PDT 128.42 6436 0 Normal
09/05/2026 06 AM PDT 128.41 6412 - Normal
09/05/2026 07 AM PDT 128.41 6412 0 Normal
09/05/2026 08 AM PDT 128.40 6388 - Normal
09/05/2026 09 AM PDT 128.40 6388 0 Normal
09/05/2026 10 AM PDT 128.39 6363 - Normal
09/05/2026 11 AM PDT 128.38 6338 - Normal
09/05/2026 12 PM PDT 128.38 6338 0 Normal
09/05/2026 01 PM PDT 128.37 6314 - Normal
09/05/2026 02 PM PDT 128.36 6289 - Normal
09/05/2026 03 PM PDT 128.36 6289 0 Normal
09/05/2026 04 PM PDT 128.35 6265 - Normal
09/05/2026 05 PM PDT 128.34 6240 - Normal
09/05/2026 06 PM PDT 128.34 6240 0 Normal
09/05/2026 07 PM PDT 128.33 6216 - Normal
09/05/2026 08 PM PDT 128.32 6192 - Normal
09/05/2026 09 PM PDT 128.30 6144 - Normal
09/05/2026 10 PM PDT 128.28 6095 - Normal
09/05/2026 11 PM PDT 128.27 6070 - Normal
09/06/2026 12 AM PDT 128.25 6022 - Normal
09/06/2026 01 AM PDT 128.23 5974 - Normal
09/06/2026 02 AM PDT 128.22 5950 - Normal
09/06/2026 03 AM PDT 128.20 5902 - Normal
09/06/2026 04 AM PDT 128.19 5877 - Normal
09/06/2026 05 AM PDT 128.19 5877 0 Normal
09/06/2026 06 AM PDT 128.18 5853 - Normal
09/06/2026 07 AM PDT 128.17 5828 - Normal
09/06/2026 08 AM PDT 128.17 5828 0 Normal
09/06/2026 09 AM PDT 128.16 5804 - Normal
09/06/2026 10 AM PDT 128.16 5804 0 Normal
09/06/2026 11 AM PDT 128.16 5804 0 Normal
09/06/2026 12 PM PDT 128.16 5804 0 Normal
09/06/2026 01 PM PDT 128.16 5804 0 Normal
09/06/2026 02 PM PDT 128.16 5804 0 Normal
09/06/2026 03 PM PDT 128.16 5804 0 Normal
09/06/2026 04 PM PDT 128.16 5804 0 Normal
09/06/2026 05 PM PDT 128.16 5804 0 Normal
09/06/2026 06 PM PDT 128.16 5804 0 Normal
09/06/2026 07 PM PDT 128.16 5804 0 Normal
09/06/2026 08 PM PDT 128.15 5780 - Normal
09/06/2026 09 PM PDT 128.15 5780 0 Normal
09/06/2026 10 PM PDT 128.16 5804 + Normal
09/06/2026 11 PM PDT 128.16 5804 0 Normal
09/07/2026 12 AM PDT 128.16 5804 0 Normal
09/07/2026 01 AM PDT 128.16 5804 0 Normal
09/07/2026 02 AM PDT 128.16 5804 0 Normal
09/07/2026 03 AM PDT 128.16 5804 0 Normal
09/07/2026 04 AM PDT 128.16 5804 0 Normal
09/07/2026 05 AM PDT 128.16 5804 0 Normal
09/07/2026 06 AM PDT 128.16 5804 0 Normal
09/07/2026 07 AM PDT 128.16 5804 0 Normal
09/07/2026 08 AM PDT 128.16 5804 0 Normal
09/07/2026 09 AM PDT 128.16 5804 0 Normal
09/07/2026 10 AM PDT 128.16 5804 0 Normal
09/07/2026 11 AM PDT 128.16 5804 0 Normal
09/07/2026 12 PM PDT 128.16 5804 0 Normal
09/07/2026 01 PM PDT 128.16 5804 0 Normal
09/07/2026 02 PM PDT 128.16 5804 0 Normal
09/07/2026 03 PM PDT 128.16 5804 0 Normal
09/07/2026 04 PM PDT 128.16 5804 0 Normal
09/07/2026 05 PM PDT 128.16 5804 0 Normal
09/07/2026 06 PM PDT 128.16 5804 0 Normal
09/07/2026 07 PM PDT 128.15 5780 - Normal
09/07/2026 08 PM PDT 128.15 5780 0 Normal
09/07/2026 09 PM PDT 128.14 5756 - Normal
09/07/2026 10 PM PDT 128.13 5732 - Normal
09/07/2026 11 PM PDT 128.12 5708 - Normal
09/08/2026 12 AM PDT 128.11 5684 - Normal
09/08/2026 01 AM PDT 128.09 5636 - Normal
09/08/2026 02 AM PDT 128.08 5611 - Normal
09/08/2026 03 AM PDT 128.06 5563 - Normal
09/08/2026 04 AM PDT 128.05 5539 - Normal
09/08/2026 05 AM PDT 128.04 5515 - Normal
09/08/2026 06 AM PDT 128.03 5491 - Normal
09/08/2026 07 AM PDT 128.02 5467 - Normal
09/08/2026 08 AM PDT 128.01 5444 - Normal
09/08/2026 09 AM PDT 128.01 5444 0 Normal
09/08/2026 10 AM PDT 128.00 5420 - Normal
09/08/2026 11 AM PDT 128.00 5420 0 Normal
09/08/2026 12 PM PDT 128.00 5420 0 Normal
09/08/2026 01 PM PDT 128.00 5420 0 Normal
09/08/2026 02 PM PDT 128.00 5420 0 Normal
09/08/2026 03 PM PDT 127.99 5397 - Normal
09/08/2026 04 PM PDT 127.99 5397 0 Normal
09/08/2026 05 PM PDT 127.99 5397 0 Normal
09/08/2026 06 PM PDT 127.99 5397 0 Normal
09/08/2026 07 PM PDT 127.99 5397 0 Normal
09/08/2026 08 PM PDT 127.99 5397 0 Normal
09/08/2026 09 PM PDT 127.99 5397 0 Normal
09/08/2026 10 PM PDT 127.99 5397 0 Normal
09/08/2026 11 PM PDT 127.99 5397 0 Normal
09/09/2026 12 AM PDT 127.99 5397 0 Normal
09/09/2026 01 AM PDT 127.99 5397 0 Normal
09/09/2026 02 AM PDT 127.99 5397 0 Normal
09/09/2026 03 AM PDT 127.99 5397 0 Normal
09/09/2026 04 AM PDT 127.99 5397 0 Normal
09/09/2026 05 AM PDT 127.99 5397 0 Normal
#
# NOTE 1: Stages are rounded to the nearest hundredth (.01) of a foot.
# NOTE 2: Flows are rounded to the nearest (1) cfs.
# NOTE 3: Trends are determined using hourly change in unrounded stage and flow.
# NOTE 4: Maximum Values are determined using unrounded stage and flow.
|